sensor_id;sensor_type;location;lat;lon;timestamp;P1;durP1;ratioP1;P2;durP2;ratioP2
8819;SDS011;4446;50.876;4.736;2023-04-01T00:01:07;3.40;;;1.50;;
8819;SDS011;4446;50.876;4.736;2023-04-01T00:03:34;6.20;;;1.98;;
8819;SDS011;4446;50.876;4.736;2023-04-01T00:06:02;3.70;;;1.77;;
8819;SDS011;4446;50.876;4.736;2023-04-01T00:08:29;2.70;;;1.45;;
8819;SDS011;4446;50.876;4.736;2023-04-01T00:10:56;7.30;;;1.80;;
8819;SDS011;4446;50.876;4.736;2023-04-01T00:13:24;3.13;;;1.38;;
8819;SDS011;4446;50.876;4.736;2023-04-01T00:15:51;4.93;;;1.40;;
8819;SDS011;4446;50.876;4.736;2023-04-01T00:18:19;4.03;;;1.70;;
8819;SDS011;4446;50.876;4.736;2023-04-01T00:20:46;6.18;;;1.55;;
8819;SDS011;4446;50.876;4.736;2023-04-01T00:23:17;4.15;;;1.58;;
8819;SDS011;4446;50.876;4.736;2023-04-01T00:25:45;3.28;;;1.55;;
8819;SDS011;4446;50.876;4.736;2023-04-01T00:28:13;3.45;;;1.30;;
8819;SDS011;4446;50.876;4.736;2023-04-01T00:30:41;3.40;;;1.40;;
8819;SDS011;4446;50.876;4.736;2023-04-01T00:33:08;3.92;;;1.80;;
8819;SDS011;4446;50.876;4.736;2023-04-01T00:35:36;2.80;;;1.40;;
8819;SDS011;4446;50.876;4.736;2023-04-01T00:38:02;4.40;;;1.52;;
8819;SDS011;4446;50.876;4.736;2023-04-01T00:40:33;3.60;;;1.50;;
8819;SDS011;4446;50.876;4.736;2023-04-01T00:43:02;4.85;;;1.50;;
8819;SDS011;4446;50.876;4.736;2023-04-01T00:45:37;5.65;;;1.45;;
8819;SDS011;4446;50.876;4.736;2023-04-01T00:48:07;5.35;;;1.58;;
8819;SDS011;4446;50.876;4.736;2023-04-01T00:50:37;2.33;;;1.27;;
8819;SDS011;4446;50.876;4.736;2023-04-01T00:53:06;3.97;;;1.80;;
8819;SDS011;4446;50.876;4.736;2023-04-01T00:55:36;4.88;;;1.65;;
8819;SDS011;4446;50.876;4.736;2023-04-01T00:58:08;2.80;;;1.33;;
8819;SDS011;4446;50.876;4.736;2023-04-01T01:00:40;6.07;;;1.92;;
8819;SDS011;4446;50.876;4.736;2023-04-01T01:03:08;4.18;;;1.50;;
8819;SDS011;4446;50.876;4.736;2023-04-01T01:05:38;3.72;;;1.20;;
8819;SDS011;4446;50.876;4.736;2023-04-01T01:08:33;3.65;;;1.20;;
8819;SDS011;4446;50.876;4.736;2023-04-01T01:11:18;2.92;;;1.70;;
8819;SDS011;4446;50.876;4.736;2023-04-01T01:13:53;3.03;;;1.40;;
8819;SDS011;4446;50.876;4.736;2023-04-01T01:16:27;2.25;;;1.27;;
8819;SDS011;4446;50.876;4.736;2023-04-01T01:18:58;2.17;;;1.10;;
8819;SDS011;4446;50.876;4.736;2023-04-01T01:24:48;1.52;;;1.35;;
8819;SDS011;4446;50.876;4.736;2023-04-01T01:27:23;1.88;;;1.20;;
8819;SDS011;4446;50.876;4.736;2023-04-01T01:30:03;2.95;;;1.23;;
8819;SDS011;4446;50.876;4.736;2023-04-01T01:35:40;1.77;;;1.10;;
8819;SDS011;4446;50.876;4.736;2023-04-01T01:38:11;2.28;;;1.13;;
8819;SDS011;4446;50.876;4.736;2023-04-01T01:40:42;3.28;;;1.30;;
8819;SDS011;4446;50.876;4.736;2023-04-01T01:43:12;1.85;;;1.20;;
8819;SDS011;4446;50.876;4.736;2023-04-01T01:45:43;3.33;;;1.48;;
8819;SDS011;4446;50.876;4.736;2023-04-01T01:48:13;3.40;;;1.30;;
8819;SDS011;4446;50.876;4.736;2023-04-01T01:50:43;1.98;;;1.10;;
8819;SDS011;4446;50.876;4.736;2023-04-01T01:53:11;1.85;;;1.33;;
8819;SDS011;4446;50.876;4.736;2023-04-01T01:55:40;3.63;;;1.40;;
8819;SDS011;4446;50.876;4.736;2023-04-01T01:58:09;2.22;;;1.13;;
8819;SDS011;4446;50.876;4.736;2023-04-01T02:00:40;3.05;;;1.10;;
8819;SDS011;4446;50.876;4.736;2023-04-01T02:03:09;1.83;;;1.17;;
8819;SDS011;4446;50.876;4.736;2023-04-01T02:05:38;1.20;;;1.10;;
8819;SDS011;4446;50.876;4.736;2023-04-01T02:08:09;2.92;;;1.35;;
8819;SDS011;4446;50.876;4.736;2023-04-01T02:10:39;1.77;;;1.25;;
8819;SDS011;4446;50.876;4.736;2023-04-01T02:13:12;1.70;;;1.30;;
8819;SDS011;4446;50.876;4.736;2023-04-01T02:15:44;4.68;;;1.70;;
8819;SDS011;4446;50.876;4.736;2023-04-01T02:18:14;3.08;;;1.77;;
8819;SDS011;4446;50.876;4.736;2023-04-01T02:20:43;3.13;;;1.77;;
8819;SDS011;4446;50.876;4.736;2023-04-01T02:23:12;2.13;;;1.73;;
8819;SDS011;4446;50.876;4.736;2023-04-01T02:25:40;2.70;;;1.85;;
8819;SDS011;4446;50.876;4.736;2023-04-01T02:28:09;3.58;;;1.95;;
8819;SDS011;4446;50.876;4.736;2023-04-01T02:30:38;2.28;;;2.03;;
8819;SDS011;4446;50.876;4.736;2023-04-01T02:33:07;4.60;;;2.20;;
8819;SDS011;4446;50.876;4.736;2023-04-01T02:35:35;3.03;;;2.03;;
8819;SDS011;4446;50.876;4.736;2023-04-01T02:38:03;2.38;;;2.17;;
8819;SDS011;4446;50.876;4.736;2023-04-01T02:40:42;3.63;;;2.30;;
8819;SDS011;4446;50.876;4.736;2023-04-01T02:43:10;4.18;;;2.80;;
8819;SDS011;4446;50.876;4.736;2023-04-01T02:45:37;5.75;;;2.70;;
8819;SDS011;4446;50.876;4.736;2023-04-01T02:48:04;4.65;;;3.40;;
8819;SDS011;4446;50.876;4.736;2023-04-01T02:50:32;5.00;;;3.22;;
8819;SDS011;4446;50.876;4.736;2023-04-01T02:52:59;5.85;;;3.03;;
8819;SDS011;4446;50.876;4.736;2023-04-01T02:55:28;4.55;;;2.60;;
8819;SDS011;4446;50.876;4.736;2023-04-01T02:57:56;6.15;;;2.70;;
8819;SDS011;4446;50.876;4.736;2023-04-01T03:00:23;3.92;;;2.40;;
8819;SDS011;4446;50.876;4.736;2023-04-01T03:02:50;6.53;;;2.70;;
8819;SDS011;4446;50.876;4.736;2023-04-01T03:05:17;4.03;;;2.85;;
8819;SDS011;4446;50.876;4.736;2023-04-01T03:07:44;4.68;;;3.00;;
8819;SDS011;4446;50.876;4.736;2023-04-01T03:10:12;6.30;;;3.20;;
8819;SDS011;4446;50.876;4.736;2023-04-01T03:12:39;6.43;;;2.95;;
8819;SDS011;4446;50.876;4.736;2023-04-01T03:15:08;5.78;;;3.10;;
8819;SDS011;4446;50.876;4.736;2023-04-01T03:17:37;5.75;;;3.03;;
8819;SDS011;4446;50.876;4.736;2023-04-01T03:20:05;4.32;;;3.00;;
8819;SDS011;4446;50.876;4.736;2023-04-01T03:22:33;8.82;;;2.80;;
8819;SDS011;4446;50.876;4.736;2023-04-01T03:25:00;4.22;;;2.67;;
8819;SDS011;4446;50.876;4.736;2023-04-01T03:27:28;6.38;;;3.20;;
8819;SDS011;4446;50.876;4.736;2023-04-01T03:29:54;7.65;;;2.55;;
8819;SDS011;4446;50.876;4.736;2023-04-01T03:32:23;6.35;;;3.15;;
8819;SDS011;4446;50.876;4.736;2023-04-01T03:34:50;9.23;;;3.08;;
8819;SDS011;4446;50.876;4.736;2023-04-01T03:37:17;8.05;;;3.38;;
8819;SDS011;4446;50.876;4.736;2023-04-01T03:39:43;7.93;;;3.20;;
8819;SDS011;4446;50.876;4.736;2023-04-01T03:42:10;5.10;;;3.08;;
8819;SDS011;4446;50.876;4.736;2023-04-01T03:44:37;6.68;;;3.38;;
8819;SDS011;4446;50.876;4.736;2023-04-01T03:47:04;7.45;;;3.38;;
8819;SDS011;4446;50.876;4.736;2023-04-01T03:49:33;8.52;;;3.80;;
8819;SDS011;4446;50.876;4.736;2023-04-01T03:52:00;6.65;;;3.63;;
8819;SDS011;4446;50.876;4.736;2023-04-01T03:54:26;6.78;;;4.18;;
8819;SDS011;4446;50.876;4.736;2023-04-01T03:56:53;7.15;;;3.70;;
8819;SDS011;4446;50.876;4.736;2023-04-01T03:59:22;8.82;;;4.25;;
8819;SDS011;4446;50.876;4.736;2023-04-01T04:01:49;5.72;;;4.07;;
8819;SDS011;4446;50.876;4.736;2023-04-01T04:04:16;8.60;;;5.07;;
8819;SDS011;4446;50.876;4.736;2023-04-01T04:06:44;12.73;;;5.15;;
8819;SDS011;4446;50.876;4.736;2023-04-01T04:09:11;10.25;;;5.30;;
8819;SDS011;4446;50.876;4.736;2023-04-01T04:11:38;9.18;;;4.70;;
8819;SDS011;4446;50.876;4.736;2023-04-01T04:14:05;8.82;;;5.10;;
8819;SDS011;4446;50.876;4.736;2023-04-01T04:16:34;11.15;;;5.20;;
8819;SDS011;4446;50.876;4.736;2023-04-01T04:19:02;11.85;;;6.07;;
8819;SDS011;4446;50.876;4.736;2023-04-01T04:21:30;14.95;;;5.35;;
8819;SDS011;4446;50.876;4.736;2023-04-01T04:23:59;11.50;;;5.72;;
8819;SDS011;4446;50.876;4.736;2023-04-01T04:26:26;9.52;;;5.82;;
8819;SDS011;4446;50.876;4.736;2023-04-01T04:28:53;11.68;;;6.40;;
8819;SDS011;4446;50.876;4.736;2023-04-01T04:31:21;11.05;;;5.55;;
8819;SDS011;4446;50.876;4.736;2023-04-01T04:33:49;10.60;;;5.68;;
8819;SDS011;4446;50.876;4.736;2023-04-01T04:36:16;10.25;;;5.70;;
8819;SDS011;4446;50.876;4.736;2023-04-01T04:38:43;10.20;;;5.80;;
8819;SDS011;4446;50.876;4.736;2023-04-01T04:41:12;9.00;;;5.78;;
8819;SDS011;4446;50.876;4.736;2023-04-01T04:43:40;9.05;;;5.53;;
8819;SDS011;4446;50.876;4.736;2023-04-01T04:46:07;13.40;;;5.60;;
8819;SDS011;4446;50.876;4.736;2023-04-01T04:48:35;8.65;;;4.68;;
8819;SDS011;4446;50.876;4.736;2023-04-01T04:51:03;9.98;;;5.20;;
8819;SDS011;4446;50.876;4.736;2023-04-01T04:53:30;8.25;;;5.22;;
8819;SDS011;4446;50.876;4.736;2023-04-01T04:55:56;7.97;;;5.05;;
8819;SDS011;4446;50.876;4.736;2023-04-01T04:58:25;8.27;;;5.35;;
8819;SDS011;4446;50.876;4.736;2023-04-01T05:00:51;7.53;;;4.75;;
8819;SDS011;4446;50.876;4.736;2023-04-01T05:03:18;7.20;;;4.10;;
8819;SDS011;4446;50.876;4.736;2023-04-01T05:05:49;4.43;;;3.60;;
8819;SDS011;4446;50.876;4.736;2023-04-01T05:08:17;5.93;;;3.90;;
8819;SDS011;4446;50.876;4.736;2023-04-01T05:10:44;7.30;;;3.88;;
8819;SDS011;4446;50.876;4.736;2023-04-01T05:13:10;6.07;;;4.07;;
8819;SDS011;4446;50.876;4.736;2023-04-01T05:15:39;6.10;;;3.40;;
8819;SDS011;4446;50.876;4.736;2023-04-01T05:18:06;4.72;;;3.13;;
8819;SDS011;4446;50.876;4.736;2023-04-01T05:20:33;3.85;;;3.15;;
8819;SDS011;4446;50.876;4.736;2023-04-01T05:23:00;4.38;;;3.28;;
8819;SDS011;4446;50.876;4.736;2023-04-01T05:25:27;4.78;;;3.17;;
8819;SDS011;4446;50.876;4.736;2023-04-01T05:27:54;4.72;;;3.03;;
8819;SDS011;4446;50.876;4.736;2023-04-01T05:30:20;4.57;;;3.55;;
8819;SDS011;4446;50.876;4.736;2023-04-01T05:32:49;4.10;;;3.08;;
8819;SDS011;4446;50.876;4.736;2023-04-01T05:35:16;3.55;;;3.05;;
8819;SDS011;4446;50.876;4.736;2023-04-01T05:37:43;3.78;;;3.00;;
8819;SDS011;4446;50.876;4.736;2023-04-01T05:40:10;4.18;;;3.17;;
8819;SDS011;4446;50.876;4.736;2023-04-01T05:42:37;5.43;;;3.35;;
8819;SDS011;4446;50.876;4.736;2023-04-01T05:45:04;3.13;;;2.53;;
8819;SDS011;4446;50.876;4.736;2023-04-01T05:47:32;2.47;;;2.28;;
8819;SDS011;4446;50.876;4.736;2023-04-01T05:50:00;4.03;;;2.67;;
8819;SDS011;4446;50.876;4.736;2023-04-01T05:52:27;2.83;;;2.50;;
8819;SDS011;4446;50.876;4.736;2023-04-01T05:54:54;2.47;;;2.28;;
8819;SDS011;4446;50.876;4.736;2023-04-01T05:57:21;3.05;;;2.70;;
8819;SDS011;4446;50.876;4.736;2023-04-01T05:59:48;4.07;;;2.85;;
8819;SDS011;4446;50.876;4.736;2023-04-01T06:02:16;3.20;;;2.78;;
8819;SDS011;4446;50.876;4.736;2023-04-01T06:04:45;4.47;;;3.40;;
8819;SDS011;4446;50.876;4.736;2023-04-01T06:07:13;3.78;;;3.10;;
8819;SDS011;4446;50.876;4.736;2023-04-01T06:09:42;4.20;;;3.10;;
8819;SDS011;4446;50.876;4.736;2023-04-01T06:12:19;5.30;;;3.53;;
8819;SDS011;4446;50.876;4.736;2023-04-01T06:15:01;5.47;;;3.38;;
8819;SDS011;4446;50.876;4.736;2023-04-01T06:17:41;4.95;;;3.42;;
8819;SDS011;4446;50.876;4.736;2023-04-01T06:20:17;3.88;;;3.58;;
8819;SDS011;4446;50.876;4.736;2023-04-01T06:23:04;6.47;;;4.43;;
8819;SDS011;4446;50.876;4.736;2023-04-01T06:25:59;7.03;;;4.20;;
8819;SDS011;4446;50.876;4.736;2023-04-01T06:34:37;7.70;;;4.78;;
8819;SDS011;4446;50.876;4.736;2023-04-01T06:40:24;8.32;;;5.00;;
8819;SDS011;4446;50.876;4.736;2023-04-01T06:43:15;8.25;;;5.10;;
8819;SDS011;4446;50.876;4.736;2023-04-01T06:45:51;9.15;;;5.30;;
8819;SDS011;4446;50.876;4.736;2023-04-01T06:48:29;9.15;;;5.40;;
8819;SDS011;4446;50.876;4.736;2023-04-01T06:51:09;9.05;;;4.80;;
8819;SDS011;4446;50.876;4.736;2023-04-01T06:53:46;6.10;;;4.53;;
8819;SDS011;4446;50.876;4.736;2023-04-01T06:56:22;6.70;;;4.97;;
8819;SDS011;4446;50.876;4.736;2023-04-01T06:58:53;8.55;;;5.35;;
8819;SDS011;4446;50.876;4.736;2023-04-01T07:01:24;6.50;;;4.72;;
8819;SDS011;4446;50.876;4.736;2023-04-01T07:03:55;5.70;;;4.63;;
8819;SDS011;4446;50.876;4.736;2023-04-01T07:06:26;9.63;;;5.90;;
8819;SDS011;4446;50.876;4.736;2023-04-01T07:08:57;8.25;;;5.20;;
8819;SDS011;4446;50.876;4.736;2023-04-01T07:11:30;6.55;;;4.93;;
8819;SDS011;4446;50.876;4.736;2023-04-01T07:13:59;7.22;;;5.13;;
8819;SDS011;4446;50.876;4.736;2023-04-01T07:16:30;6.95;;;5.13;;
8819;SDS011;4446;50.876;4.736;2023-04-01T07:19:01;5.53;;;4.43;;
8819;SDS011;4446;50.876;4.736;2023-04-01T07:21:33;6.07;;;4.57;;
8819;SDS011;4446;50.876;4.736;2023-04-01T07:24:05;6.63;;;4.50;;
8819;SDS011;4446;50.876;4.736;2023-04-01T07:26:38;6.72;;;4.30;;
8819;SDS011;4446;50.876;4.736;2023-04-01T07:29:05;7.00;;;3.70;;
8819;SDS011;4446;50.876;4.736;2023-04-01T07:31:40;7.22;;;3.47;;
8819;SDS011;4446;50.876;4.736;2023-04-01T07:34:35;3.85;;;3.33;;
8819;SDS011;4446;50.876;4.736;2023-04-01T07:37:10;3.67;;;3.00;;
8819;SDS011;4446;50.876;4.736;2023-04-01T07:39:42;3.35;;;2.70;;
8819;SDS011;4446;50.876;4.736;2023-04-01T07:42:21;2.25;;;1.83;;
8819;SDS011;4446;50.876;4.736;2023-04-01T07:44:54;2.20;;;1.95;;
8819;SDS011;4446;50.876;4.736;2023-04-01T07:47:35;2.25;;;2.00;;
8819;SDS011;4446;50.876;4.736;2023-04-01T07:50:18;2.03;;;1.85;;
8819;SDS011;4446;50.876;4.736;2023-04-01T07:52:53;1.85;;;1.75;;
8819;SDS011;4446;50.876;4.736;2023-04-01T07:55:32;2.83;;;1.80;;
8819;SDS011;4446;50.876;4.736;2023-04-01T07:58:06;2.45;;;2.22;;
8819;SDS011;4446;50.876;4.736;2023-04-01T08:00:40;2.92;;;2.63;;
8819;SDS011;4446;50.876;4.736;2023-04-01T08:03:16;2.30;;;2.10;;
8819;SDS011;4446;50.876;4.736;2023-04-01T08:05:55;2.90;;;2.30;;
8819;SDS011;4446;50.876;4.736;2023-04-01T08:08:27;2.20;;;1.90;;
8819;SDS011;4446;50.876;4.736;2023-04-01T08:11:04;4.03;;;2.28;;
8819;SDS011;4446;50.876;4.736;2023-04-01T08:13:42;2.25;;;2.05;;
8819;SDS011;4446;50.876;4.736;2023-04-01T08:16:16;2.25;;;1.75;;
8819;SDS011;4446;50.876;4.736;2023-04-01T08:18:51;3.42;;;2.20;;
8819;SDS011;4446;50.876;4.736;2023-04-01T08:21:28;2.10;;;1.90;;
8819;SDS011;4446;50.876;4.736;2023-04-01T08:24:00;1.70;;;1.60;;
8819;SDS011;4446;50.876;4.736;2023-04-01T08:26:37;1.30;;;1.20;;
8819;SDS011;4446;50.876;4.736;2023-04-01T08:29:11;1.50;;;1.40;;
8819;SDS011;4446;50.876;4.736;2023-04-01T08:31:43;1.33;;;1.23;;
8819;SDS011;4446;50.876;4.736;2023-04-01T08:34:17;2.05;;;1.77;;
8819;SDS011;4446;50.876;4.736;2023-04-01T08:36:49;2.92;;;1.65;;
8819;SDS011;4446;50.876;4.736;2023-04-01T08:39:20;1.40;;;1.30;;
8819;SDS011;4446;50.876;4.736;2023-04-01T08:41:58;1.60;;;1.42;;
8819;SDS011;4446;50.876;4.736;2023-04-01T08:45:04;2.30;;;2.10;;
8819;SDS011;4446;50.876;4.736;2023-04-01T08:51:08;1.75;;;1.65;;
8819;SDS011;4446;50.876;4.736;2023-04-01T08:53:54;1.63;;;1.52;;
8819;SDS011;4446;50.876;4.736;2023-04-01T08:56:33;2.92;;;2.30;;
8819;SDS011;4446;50.876;4.736;2023-04-01T09:02:00;1.92;;;1.45;;
8819;SDS011;4446;50.876;4.736;2023-04-01T09:04:47;2.58;;;1.90;;
8819;SDS011;4446;50.876;4.736;2023-04-01T09:07:29;2.03;;;1.90;;
8819;SDS011;4446;50.876;4.736;2023-04-01T09:10:11;5.70;;;3.65;;
8819;SDS011;4446;50.876;4.736;2023-04-01T09:12:59;2.85;;;2.50;;
8819;SDS011;4446;50.876;4.736;2023-04-01T09:15:51;8.27;;;5.53;;
8819;SDS011;4446;50.876;4.736;2023-04-01T09:18:39;4.15;;;1.90;;
8819;SDS011;4446;50.876;4.736;2023-04-01T09:21:48;2.30;;;2.10;;
8819;SDS011;4446;50.876;4.736;2023-04-01T09:24:35;1.90;;;1.80;;
8819;SDS011;4446;50.876;4.736;2023-04-01T09:27:29;1.60;;;1.50;;
8819;SDS011;4446;50.876;4.736;2023-04-01T09:36:12;1.67;;;1.58;;
8819;SDS011;4446;50.876;4.736;2023-04-01T09:38:55;2.67;;;1.92;;
8819;SDS011;4446;50.876;4.736;2023-04-01T09:41:27;1.70;;;1.60;;
8819;SDS011;4446;50.876;4.736;2023-04-01T09:44:03;1.58;;;1.48;;
8819;SDS011;4446;50.876;4.736;2023-04-01T09:46:45;2.00;;;1.80;;
8819;SDS011;4446;50.876;4.736;2023-04-01T09:49:31;1.80;;;1.70;;
8819;SDS011;4446;50.876;4.736;2023-04-01T09:52:23;2.28;;;1.80;;
8819;SDS011;4446;50.876;4.736;2023-04-01T09:54:57;2.00;;;1.90;;
8819;SDS011;4446;50.876;4.736;2023-04-01T09:57:39;2.17;;;1.98;;
8819;SDS011;4446;50.876;4.736;2023-04-01T10:00:45;1.92;;;1.73;;
8819;SDS011;4446;50.876;4.736;2023-04-01T10:19:16;2.72;;;2.53;;
8819;SDS011;4446;50.876;4.736;2023-04-01T10:25:04;3.55;;;2.92;;
8819;SDS011;4446;50.876;4.736;2023-04-01T10:28:08;3.67;;;3.30;;
8819;SDS011;4446;50.876;4.736;2023-04-01T10:31:22;3.60;;;3.30;;
8819;SDS011;4446;50.876;4.736;2023-04-01T10:37:34;3.67;;;3.30;;
8819;SDS011;4446;50.876;4.736;2023-04-01T10:40:35;3.97;;;3.08;;
8819;SDS011;4446;50.876;4.736;2023-04-01T10:55:29;2.58;;;2.38;;
8819;SDS011;4446;50.876;4.736;2023-04-01T10:58:14;2.50;;;2.30;;
8819;SDS011;4446;50.876;4.736;2023-04-01T11:01:11;4.45;;;2.78;;
8819;SDS011;4446;50.876;4.736;2023-04-01T11:04:27;2.70;;;2.50;;
8819;SDS011;4446;50.876;4.736;2023-04-01T11:07:22;3.15;;;2.50;;
8819;SDS011;4446;50.876;4.736;2023-04-01T11:10:44;3.25;;;2.42;;
8819;SDS011;4446;50.876;4.736;2023-04-01T11:13:33;2.63;;;2.40;;
8819;SDS011;4446;50.876;4.736;2023-04-01T11:16:38;2.60;;;2.40;;
8819;SDS011;4446;50.876;4.736;2023-04-01T11:22:32;2.30;;;2.20;;
8819;SDS011;4446;50.876;4.736;2023-04-01T11:28:18;2.78;;;2.30;;
8819;SDS011;4446;50.876;4.736;2023-04-01T11:37:05;1.67;;;1.58;;
8819;SDS011;4446;50.876;4.736;2023-04-01T11:39:48;3.60;;;2.15;;
8819;SDS011;4446;50.876;4.736;2023-04-01T11:42:25;1.92;;;1.83;;
8819;SDS011;4446;50.876;4.736;2023-04-01T11:45:01;1.70;;;1.60;;
8819;SDS011;4446;50.876;4.736;2023-04-01T11:47:45;1.50;;;1.40;;
8819;SDS011;4446;50.876;4.736;2023-04-01T11:50:24;1.60;;;1.50;;
8819;SDS011;4446;50.876;4.736;2023-04-01T11:53:10;1.92;;;1.67;;
8819;SDS011;4446;50.876;4.736;2023-04-01T11:55:52;1.80;;;1.70;;
8819;SDS011;4446;50.876;4.736;2023-04-01T11:58:42;2.00;;;1.90;;
8819;SDS011;4446;50.876;4.736;2023-04-01T12:01:36;2.00;;;1.88;;
8819;SDS011;4446;50.876;4.736;2023-04-01T12:07:21;1.83;;;1.73;;
8819;SDS011;4446;50.876;4.736;2023-04-01T12:09:58;1.80;;;1.70;;
8819;SDS011;4446;50.876;4.736;2023-04-01T12:12:35;1.98;;;1.70;;
8819;SDS011;4446;50.876;4.736;2023-04-01T12:15:13;1.90;;;1.80;;
8819;SDS011;4446;50.876;4.736;2023-04-01T12:17:47;1.90;;;1.80;;
8819;SDS011;4446;50.876;4.736;2023-04-01T12:20:32;1.98;;;1.65;;
8819;SDS011;4446;50.876;4.736;2023-04-01T12:23:09;2.55;;;1.88;;
8819;SDS011;4446;50.876;4.736;2023-04-01T12:28:44;2.30;;;2.10;;
8819;SDS011;4446;50.876;4.736;2023-04-01T12:31:25;2.15;;;2.00;;
8819;SDS011;4446;50.876;4.736;2023-04-01T12:37:08;1.90;;;1.80;;
8819;SDS011;4446;50.876;4.736;2023-04-01T12:39:57;2.05;;;1.90;;
8819;SDS011;4446;50.876;4.736;2023-04-01T12:42:38;3.17;;;2.40;;
8819;SDS011;4446;50.876;4.736;2023-04-01T12:45:31;3.00;;;2.70;;
8819;SDS011;4446;50.876;4.736;2023-04-01T12:48:20;3.55;;;2.17;;
8819;SDS011;4446;50.876;4.736;2023-04-01T12:54:23;2.58;;;2.10;;
8819;SDS011;4446;50.876;4.736;2023-04-01T12:57:29;2.08;;;1.98;;
8819;SDS011;4446;50.876;4.736;2023-04-01T13:00:12;2.40;;;2.15;;
8819;SDS011;4446;50.876;4.736;2023-04-01T13:02:59;2.15;;;2.05;;
8819;SDS011;4446;50.876;4.736;2023-04-01T13:08:49;2.60;;;2.40;;
8819;SDS011;4446;50.876;4.736;2023-04-01T13:11:20;2.05;;;1.95;;
8819;SDS011;4446;50.876;4.736;2023-04-01T13:14:08;3.05;;;1.70;;
8819;SDS011;4446;50.876;4.736;2023-04-01T13:16:50;1.60;;;1.50;;
8819;SDS011;4446;50.876;4.736;2023-04-01T13:19:25;2.63;;;1.70;;
8819;SDS011;4446;50.876;4.736;2023-04-01T13:22:03;1.95;;;1.55;;
8819;SDS011;4446;50.876;4.736;2023-04-01T13:24:39;2.45;;;1.80;;
8819;SDS011;4446;50.876;4.736;2023-04-01T13:27:14;1.77;;;1.63;;
8819;SDS011;4446;50.876;4.736;2023-04-01T13:29:57;1.80;;;1.65;;
8819;SDS011;4446;50.876;4.736;2023-04-01T13:32:37;1.52;;;1.42;;
8819;SDS011;4446;50.876;4.736;2023-04-01T13:35:18;1.70;;;1.60;;
8819;SDS011;4446;50.876;4.736;2023-04-01T13:37:54;1.80;;;1.60;;
8819;SDS011;4446;50.876;4.736;2023-04-01T13:40:34;2.10;;;1.80;;
8819;SDS011;4446;50.876;4.736;2023-04-01T13:43:10;2.00;;;1.83;;
8819;SDS011;4446;50.876;4.736;2023-04-01T13:45:57;1.80;;;1.70;;
8819;SDS011;4446;50.876;4.736;2023-04-01T13:52:01;2.75;;;2.03;;
8819;SDS011;4446;50.876;4.736;2023-04-01T13:54:41;1.50;;;1.40;;
8819;SDS011;4446;50.876;4.736;2023-04-01T13:57:29;1.67;;;1.58;;
8819;SDS011;4446;50.876;4.736;2023-04-01T14:00:17;1.88;;;1.77;;
8819;SDS011;4446;50.876;4.736;2023-04-01T14:02:56;1.70;;;1.60;;
8819;SDS011;4446;50.876;4.736;2023-04-01T14:09:00;1.80;;;1.70;;
8819;SDS011;4446;50.876;4.736;2023-04-01T14:11:44;1.50;;;1.40;;
8819;SDS011;4446;50.876;4.736;2023-04-01T14:14:21;1.60;;;1.50;;
8819;SDS011;4446;50.876;4.736;2023-04-01T14:17:14;1.70;;;1.60;;
8819;SDS011;4446;50.876;4.736;2023-04-01T14:19:56;2.65;;;1.50;;
8819;SDS011;4446;50.876;4.736;2023-04-01T14:22:42;1.80;;;1.60;;
8819;SDS011;4446;50.876;4.736;2023-04-01T14:25:25;1.83;;;1.73;;
8819;SDS011;4446;50.876;4.736;2023-04-01T14:28:04;2.20;;;2.10;;
8819;SDS011;4446;50.876;4.736;2023-04-01T14:30:51;2.67;;;2.47;;
8819;SDS011;4446;50.876;4.736;2023-04-01T14:33:30;2.92;;;2.72;;
8819;SDS011;4446;50.876;4.736;2023-04-01T14:36:08;3.10;;;2.80;;
8819;SDS011;4446;50.876;4.736;2023-04-01T14:39:00;3.53;;;3.17;;
8819;SDS011;4446;50.876;4.736;2023-04-01T14:41:45;3.47;;;3.17;;
8819;SDS011;4446;50.876;4.736;2023-04-01T14:50:17;3.80;;;3.42;;
8819;SDS011;4446;50.876;4.736;2023-04-01T14:52:48;3.72;;;3.42;;
8819;SDS011;4446;50.876;4.736;2023-04-01T14:55:28;3.88;;;3.47;;
8819;SDS011;4446;50.876;4.736;2023-04-01T14:58:00;3.92;;;3.63;;
8819;SDS011;4446;50.876;4.736;2023-04-01T15:00:45;3.67;;;3.38;;
8819;SDS011;4446;50.876;4.736;2023-04-01T15:03:16;3.00;;;2.80;;
8819;SDS011;4446;50.876;4.736;2023-04-01T15:05:49;3.13;;;2.92;;
8819;SDS011;4446;50.876;4.736;2023-04-01T15:08:21;3.20;;;3.00;;
8819;SDS011;4446;50.876;4.736;2023-04-01T15:11:06;3.40;;;3.10;;
8819;SDS011;4446;50.876;4.736;2023-04-01T15:16:55;2.75;;;2.45;;
8819;SDS011;4446;50.876;4.736;2023-04-01T15:19:38;3.95;;;2.65;;
8819;SDS011;4446;50.876;4.736;2023-04-01T15:22:24;2.22;;;2.08;;
8819;SDS011;4446;50.876;4.736;2023-04-01T15:25:05;2.42;;;2.28;;
8819;SDS011;4446;50.876;4.736;2023-04-01T15:27:48;2.45;;;1.85;;
8819;SDS011;4446;50.876;4.736;2023-04-01T15:30:27;2.47;;;2.05;;
8819;SDS011;4446;50.876;4.736;2023-04-01T15:33:07;2.13;;;1.92;;
8819;SDS011;4446;50.876;4.736;2023-04-01T15:35:55;2.10;;;2.00;;
8819;SDS011;4446;50.876;4.736;2023-04-01T15:38:29;2.03;;;1.80;;
8819;SDS011;4446;50.876;4.736;2023-04-01T15:41:03;3.67;;;1.95;;
8819;SDS011;4446;50.876;4.736;2023-04-01T15:43:40;2.20;;;2.00;;
8819;SDS011;4446;50.876;4.736;2023-04-01T15:48:57;2.00;;;1.90;;
8819;SDS011;4446;50.876;4.736;2023-04-01T15:54:23;2.53;;;2.28;;
8819;SDS011;4446;50.876;4.736;2023-04-01T15:57:13;2.58;;;2.38;;
8819;SDS011;4446;50.876;4.736;2023-04-01T15:59:53;3.00;;;2.70;;
8819;SDS011;4446;50.876;4.736;2023-04-01T16:02:34;2.83;;;2.53;;
8819;SDS011;4446;50.876;4.736;2023-04-01T16:05:11;3.45;;;3.15;;
8819;SDS011;4446;50.876;4.736;2023-04-01T16:07:55;3.53;;;3.22;;
8819;SDS011;4446;50.876;4.736;2023-04-01T16:10:31;3.15;;;2.85;;
8819;SDS011;4446;50.876;4.736;2023-04-01T16:13:24;3.50;;;3.05;;
8819;SDS011;4446;50.876;4.736;2023-04-01T16:16:00;3.30;;;3.00;;
8819;SDS011;4446;50.876;4.736;2023-04-01T16:18:50;3.30;;;2.63;;
8819;SDS011;4446;50.876;4.736;2023-04-01T16:21:37;3.70;;;3.10;;
8819;SDS011;4446;50.876;4.736;2023-04-01T16:24:12;3.97;;;3.20;;
8819;SDS011;4446;50.876;4.736;2023-04-01T16:26:44;4.53;;;2.95;;
8819;SDS011;4446;50.876;4.736;2023-04-01T16:29:19;3.88;;;2.60;;
8819;SDS011;4446;50.876;4.736;2023-04-01T16:31:57;4.82;;;3.10;;
8819;SDS011;4446;50.876;4.736;2023-04-01T16:34:36;3.63;;;3.30;;
8819;SDS011;4446;50.876;4.736;2023-04-01T16:37:08;3.35;;;3.08;;
8819;SDS011;4446;50.876;4.736;2023-04-01T16:39:42;3.03;;;2.70;;
8819;SDS011;4446;50.876;4.736;2023-04-01T16:42:26;3.92;;;2.60;;
8819;SDS011;4446;50.876;4.736;2023-04-01T16:45:06;3.10;;;2.42;;
8819;SDS011;4446;50.876;4.736;2023-04-01T16:47:45;2.88;;;2.55;;
8819;SDS011;4446;50.876;4.736;2023-04-01T16:50:18;2.65;;;2.45;;
8819;SDS011;4446;50.876;4.736;2023-04-01T16:52:53;2.80;;;2.60;;
8819;SDS011;4446;50.876;4.736;2023-04-01T16:55:32;3.47;;;3.17;;
8819;SDS011;4446;50.876;4.736;2023-04-01T16:58:01;4.63;;;4.22;;
8819;SDS011;4446;50.876;4.736;2023-04-01T17:00:29;6.10;;;5.50;;
8819;SDS011;4446;50.876;4.736;2023-04-01T17:03:08;6.05;;;5.55;;
8819;SDS011;4446;50.876;4.736;2023-04-01T17:05:46;4.68;;;4.28;;
8819;SDS011;4446;50.876;4.736;2023-04-01T17:08:24;5.85;;;5.25;;
8819;SDS011;4446;50.876;4.736;2023-04-01T17:11:02;4.85;;;4.40;;
8819;SDS011;4446;50.876;4.736;2023-04-01T17:13:38;4.75;;;4.25;;
8819;SDS011;4446;50.876;4.736;2023-04-01T17:19:37;3.13;;;2.90;;
8819;SDS011;4446;50.876;4.736;2023-04-01T17:22:20;7.53;;;6.22;;
8819;SDS011;4446;50.876;4.736;2023-04-01T17:24:57;6.78;;;4.85;;
8819;SDS011;4446;50.876;4.736;2023-04-01T17:27:40;4.25;;;3.85;;
8819;SDS011;4446;50.876;4.736;2023-04-01T17:30:17;5.22;;;4.75;;
8819;SDS011;4446;50.876;4.736;2023-04-01T17:33:03;5.80;;;5.20;;
8819;SDS011;4446;50.876;4.736;2023-04-01T17:35:54;6.65;;;5.30;;
8819;SDS011;4446;50.876;4.736;2023-04-01T17:38:34;5.63;;;5.13;;
8819;SDS011;4446;50.876;4.736;2023-04-01T17:41:16;6.03;;;5.30;;
8819;SDS011;4446;50.876;4.736;2023-04-01T17:43:52;5.90;;;5.30;;
8819;SDS011;4446;50.876;4.736;2023-04-01T17:46:31;5.50;;;5.00;;
8819;SDS011;4446;50.876;4.736;2023-04-01T17:49:10;6.30;;;5.70;;
8819;SDS011;4446;50.876;4.736;2023-04-01T17:51:51;5.82;;;5.32;;
8819;SDS011;4446;50.876;4.736;2023-04-01T17:54:27;6.03;;;5.10;;
8819;SDS011;4446;50.876;4.736;2023-04-01T17:57:07;5.53;;;5.03;;
8819;SDS011;4446;50.876;4.736;2023-04-01T17:59:53;6.32;;;5.60;;
8819;SDS011;4446;50.876;4.736;2023-04-01T18:02:29;6.25;;;5.75;;
8819;SDS011;4446;50.876;4.736;2023-04-01T18:05:06;6.43;;;5.82;;